Time;durP1;ratioP1;P1;durP2;ratioP2;P2;SDS_P1;SDS_P2;PMS_P1;PMS_P2;Temp;Humidity;BMP_temperature;BMP_pressure;BME280_temperature;BME280_humidity;BME280_pressure;Samples;Min_cycle;Max_cycle;Signal;HPM_P1;HPM_P2
2022/05/21 00:01:20;;;;;;;4.10;3.70;;;11.40;99.90;;;;;;5002675;28;20532;-87
2022/05/21 00:03:45;;;;;;;6.15;4.57;;;11.40;99.90;;;;;;5001874;28;20540;-87
2022/05/21 00:06:11;;;;;;;6.70;3.67;;;11.40;99.90;;;;;;5001209;28;20424;-86
2022/05/21 00:08:36;;;;;;;4.70;4.03;;;11.50;99.90;;;;;;4985389;28;20485;-87
2022/05/21 00:11:02;;;;;;;4.00;3.42;;;11.50;99.90;;;;;;5000700;28;20115;-88
2022/05/21 00:13:28;;;;;;;5.82;3.90;;;11.50;99.90;;;;;;5003581;28;20054;-87
2022/05/21 00:15:54;;;;;;;12.70;5.25;;;11.60;99.90;;;;;;5002158;28;20080;-87
2022/05/21 00:18:20;;;;;;;4.78;4.38;;;11.60;99.90;;;;;;5001964;28;20432;-87
2022/05/21 00:20:48;;;;;;;4.50;3.97;;;11.60;99.90;;;;;;5002679;28;20066;-87
2022/05/21 00:23:34;;;;;;;5.55;4.78;;;11.60;99.90;;;;;;5002969;28;20073;-86
2022/05/21 00:26:06;;;;;;;8.50;5.05;;;11.70;99.90;;;;;;5000990;28;20066;-87
2022/05/21 00:28:34;;;;;;;5.82;5.22;;;11.70;99.90;;;;;;5002444;28;20037;-86
2022/05/21 00:31:00;;;;;;;8.73;5.32;;;11.70;99.90;;;;;;5001205;28;20082;-87
2022/05/21 00:33:27;;;;;;;27.40;5.93;;;11.80;99.90;;;;;;4985330;28;20042;-87
2022/05/21 00:35:53;;;;;;;7.22;5.78;;;11.80;99.90;;;;;;5002709;28;20037;-87
2022/05/21 00:38:19;;;;;;;5.15;4.65;;;11.80;99.90;;;;;;5002254;28;20503;-87
2022/05/21 00:40:46;;;;;;;10.88;4.80;;;11.90;99.90;;;;;;5000531;28;20038;-87
2022/05/21 00:43:43;;;;;;;5.68;3.92;;;11.90;99.90;;;;;;5000781;28;20046;-86
2022/05/21 00:46:17;;;;;;;5.70;3.63;;;11.90;99.90;;;;;;5001388;28;20440;-87
2022/05/21 00:48:45;;;;;;;10.95;6.00;;;11.90;99.90;;;;;;5001239;28;20049;-87
2022/05/21 00:51:15;;;;;;;14.75;5.07;;;12.00;99.90;;;;;;5001960;28;20484;-87
2022/05/21 00:53:43;;;;;;;12.27;4.68;;;12.00;99.90;;;;;;5002109;28;20531;-87
2022/05/21 00:56:10;;;;;;;4.82;4.40;;;12.00;99.90;;;;;;5001350;28;20056;-86
2022/05/21 01:01:21;;;;;;;4.95;4.05;;;12.10;99.90;;;;;;5002472;28;20214;-87
2022/05/21 01:03:46;;;;;;;4.45;3.75;;;12.10;99.90;;;;;;5001922;28;20104;-87
2022/05/21 01:06:13;;;;;;;8.10;3.92;;;12.20;99.90;;;;;;5001975;28;20501;-87
2022/05/21 01:08:38;;;;;;;7.25;4.15;;;12.20;99.90;;;;;;5001191;28;20496;-90
2022/05/21 01:11:11;;;;;;;6.93;4.95;;;12.20;99.90;;;;;;4999939;28;20057;-90
2022/05/21 01:13:40;;;;;;;9.40;5.32;;;12.30;99.90;;;;;;5001932;28;20034;-90
2022/05/21 01:16:07;;;;;;;5.32;4.60;;;12.30;99.90;;;;;;5002335;28;20038;-90
2022/05/21 01:18:32;;;;;;;10.93;5.07;;;12.30;99.90;;;;;;5001722;28;20096;-90
2022/05/21 01:21:00;;;;;;;5.53;4.47;;;12.30;99.90;;;;;;5003297;28;20071;-90
2022/05/21 01:23:27;;;;;;;6.45;5.18;;;12.30;99.90;;;;;;5002134;28;20042;-90
2022/05/21 01:25:55;;;;;;;5.22;3.58;;;12.40;99.90;;;;;;5000958;28;20129;-91
2022/05/21 01:28:23;;;;;;;11.00;4.53;;;12.40;99.90;;;;;;5002986;28;20046;-91
2022/05/21 01:30:54;;;;;;;4.05;3.65;;;12.40;99.90;;;;;;5003261;28;20041;-90
2022/05/21 01:33:22;;;;;;;6.45;4.20;;;12.40;99.90;;;;;;5003257;28;20038;-90
2022/05/21 01:35:49;;;;;;;8.25;3.28;;;12.40;99.90;;;;;;5005015;28;20049;-90
2022/05/21 01:38:19;;;;;;;10.77;3.22;;;12.40;99.90;;;;;;5006407;28;20038;-90
2022/05/21 01:40:45;;;;;;;7.18;5.78;;;12.40;99.90;;;;;;5005621;28;20077;-89
2022/05/21 01:45:55;;;;;;;4.90;3.72;;;12.50;99.90;;;;;;5006373;28;20064;-90
2022/05/21 01:48:23;;;;;;;5.70;5.15;;;12.50;99.90;;;;;;5005462;28;20041;-89
2022/05/21 01:50:51;;;;;;;6.03;4.60;;;12.50;99.90;;;;;;5006266;28;20038;-89
2022/05/21 01:53:17;;;;;;;6.72;3.08;;;12.50;99.90;;;;;;5005286;28;20042;-89
2022/05/21 01:55:44;;;;;;;5.60;3.38;;;12.50;99.90;;;;;;5004171;28;20033;-90
2022/05/21 01:58:10;;;;;;;8.85;3.95;;;12.50;99.90;;;;;;5006177;28;20130;-89
2022/05/21 02:00:36;;;;;;;5.20;3.45;;;12.60;99.90;;;;;;5005980;28;20124;-90
2022/05/21 02:03:02;;;;;;;7.45;2.85;;;12.60;99.90;;;;;;5005315;28;20049;-88
2022/05/21 02:05:28;;;;;;;7.55;3.58;;;12.60;99.90;;;;;;5005999;28;20046;-89
2022/05/21 02:07:53;;;;;;;5.38;2.40;;;12.60;99.90;;;;;;5005256;28;20128;-89
2022/05/21 02:10:19;;;;;;;7.65;4.60;;;12.60;99.90;;;;;;5004473;28;20100;-90
2022/05/21 02:12:44;;;;;;;6.65;4.47;;;12.70;99.90;;;;;;5005514;28;20080;-90
2022/05/21 02:15:10;;;;;;;3.97;2.70;;;12.70;99.90;;;;;;5004067;28;20254;-89
2022/05/21 02:17:36;;;;;;;5.13;2.70;;;12.70;99.90;;;;;;5005693;28;20606;-89
2022/05/21 02:20:03;;;;;;;3.67;2.42;;;12.70;99.90;;;;;;5005684;28;20409;-91
2022/05/21 02:22:28;;;;;;;10.55;3.13;;;12.70;99.90;;;;;;4988941;28;20477;-89
2022/05/21 02:24:54;;;;;;;4.40;2.53;;;12.70;99.90;;;;;;5005350;28;20057;-90
2022/05/21 02:27:19;;;;;;;5.30;3.47;;;12.80;99.90;;;;;;4986583;28;20839;-90
2022/05/21 02:29:45;;;;;;;3.30;3.03;;;12.80;99.90;;;;;;5003006;28;20381;-90
2022/05/21 02:32:12;;;;;;;4.28;2.58;;;12.70;99.90;;;;;;5005140;28;20131;-89
2022/05/21 02:34:39;;;;;;;16.35;3.10;;;12.80;99.90;;;;;;5005004;28;20042;-89
2022/05/21 02:39:50;;;;;;;9.05;2.53;;;12.80;99.90;;;;;;5005342;28;20065;-90
2022/05/21 02:44:59;;;;;;;3.80;2.00;;;12.80;99.90;;;;;;5004721;28;20084;-90
2022/05/21 02:47:25;;;;;;;10.05;3.92;;;12.80;99.90;;;;;;5000164;28;20508;-88
2022/05/21 02:49:51;;;;;;;17.30;3.28;;;12.80;99.90;;;;;;4985006;28;20042;-87
2022/05/21 02:52:17;;;;;;;9.20;4.75;;;12.80;99.90;;;;;;4967349;28;20617;-88
2022/05/21 02:54:43;;;;;;;7.63;2.67;;;12.90;99.90;;;;;;4983241;28;20046;-88
2022/05/21 02:57:09;;;;;;;7.78;4.03;;;12.90;99.90;;;;;;4992554;28;20570;-88
2022/05/21 02:59:39;;;;;;;6.03;3.08;;;12.90;99.90;;;;;;5002860;28;20042;-88
2022/05/21 03:02:05;;;;;;;10.27;3.45;;;12.90;99.90;;;;;;5003896;28;20042;-87
2022/05/21 03:04:31;;;;;;;12.30;3.38;;;12.90;99.90;;;;;;5004641;28;20053;-87
2022/05/21 03:06:56;;;;;;;9.73;3.53;;;12.90;99.90;;;;;;4987258;28;20042;-88
2022/05/21 03:12:08;;;;;;;18.25;4.10;;;12.90;99.90;;;;;;5002954;28;20053;-86
2022/05/21 03:14:34;;;;;;;17.23;2.40;;;12.90;99.90;;;;;;5003861;28;20045;-85
2022/05/21 03:16:59;;;;;;;5.15;2.30;;;12.90;99.90;;;;;;5004532;28;20046;-88
2022/05/21 03:19:30;;;;;;;5.95;3.03;;;12.90;99.90;;;;;;5003210;28;20041;-86
2022/05/21 03:21:56;;;;;;;9.73;3.00;;;12.90;99.90;;;;;;5004315;28;20126;-86
2022/05/21 03:24:22;;;;;;;3.85;1.88;;;12.90;99.90;;;;;;5002771;28;20420;-88
2022/05/21 03:26:48;;;;;;;7.32;3.13;;;12.90;99.90;;;;;;5001584;28;20054;-87
2022/05/21 03:29:14;;;;;;;13.98;2.95;;;12.90;99.90;;;;;;5003598;28;20045;-88
2022/05/21 03:31:39;;;;;;;6.50;3.90;;;12.90;99.90;;;;;;5002456;28;20052;-87
2022/05/21 03:34:07;;;;;;;5.68;2.38;;;12.80;99.90;;;;;;5003412;28;20121;-86
2022/05/21 03:36:33;;;;;;;13.20;3.45;;;12.90;99.90;;;;;;5002734;28;20045;-87
2022/05/21 03:38:59;;;;;;;3.95;1.92;;;12.80;99.90;;;;;;5003572;28;20171;-87
2022/05/21 03:41:26;;;;;;;17.05;2.60;;;12.80;99.90;;;;;;5002627;28;20042;-87
2022/05/21 03:43:52;;;;;;;7.47;2.60;;;12.80;99.90;;;;;;5003322;28;20045;-87
2022/05/21 03:46:18;;;;;;;2.95;2.00;;;12.80;99.90;;;;;;5003379;28;20113;-85
2022/05/21 03:48:44;;;;;;;6.88;1.92;;;12.80;99.90;;;;;;5003517;28;20050;-86
2022/05/21 03:51:10;;;;;;;2.95;2.25;;;12.80;99.90;;;;;;5002786;28;20048;-86
2022/05/21 03:53:39;;;;;;;5.82;2.38;;;12.80;99.90;;;;;;5003485;28;20049;-86
2022/05/21 03:56:05;;;;;;;2.72;2.25;;;12.80;99.90;;;;;;5001760;28;20468;-85
2022/05/21 03:58:31;;;;;;;4.72;2.65;;;12.80;99.90;;;;;;5003688;28;20042;-79
2022/05/21 04:00:56;;;;;;;13.10;2.58;;;12.80;99.90;;;;;;5003576;28;20100;-84
2022/05/21 04:03:22;;;;;;;4.75;2.78;;;12.80;99.90;;;;;;5001932;28;20117;-85
2022/05/21 04:05:47;;;;;;;4.80;2.42;;;12.80;99.90;;;;;;5002779;28;20120;-83
2022/05/21 04:08:15;;;;;;;6.07;2.58;;;12.80;99.90;;;;;;5003330;28;20100;-86
2022/05/21 04:10:41;;;;;;;2.95;1.98;;;12.80;99.90;;;;;;5001939;28;20115;-85
2022/05/21 04:13:06;;;;;;;4.53;2.67;;;12.80;99.90;;;;;;5002808;28;20050;-85
2022/05/21 04:15:33;;;;;;;13.50;2.30;;;12.80;99.90;;;;;;5002941;28;20038;-84
2022/05/21 04:17:59;;;;;;;14.57;2.25;;;12.80;99.90;;;;;;5003333;28;20238;-85
2022/05/21 04:20:24;;;;;;;11.57;2.70;;;12.80;99.90;;;;;;5001701;28;20050;-84
2022/05/21 04:22:51;;;;;;;4.50;2.72;;;12.80;99.90;;;;;;5003059;28;20058;-84
2022/05/21 04:25:17;;;;;;;9.13;2.05;;;12.80;99.90;;;;;;5001409;28;20084;-84
2022/05/21 04:27:42;;;;;;;5.13;1.65;;;12.80;99.90;;;;;;5003418;28;20045;-83
2022/05/21 04:30:14;;;;;;;5.05;2.00;;;12.70;99.90;;;;;;5001226;28;20038;-84
2022/05/21 04:32:40;;;;;;;3.25;2.10;;;12.70;99.90;;;;;;5002915;28;20041;-84
2022/05/21 04:35:06;;;;;;;6.53;1.85;;;12.70;99.90;;;;;;5001707;28;20050;-84
2022/05/21 04:37:35;;;;;;;5.45;2.53;;;12.70;99.90;;;;;;5002856;28;20037;-83
2022/05/21 04:40:00;;;;;;;4.57;1.85;;;12.70;99.90;;;;;;5001600;28;20089;-83
2022/05/21 04:42:26;;;;;;;9.13;1.85;;;12.70;99.90;;;;;;5003199;28;20073;-83
2022/05/21 04:44:51;;;;;;;9.15;2.47;;;12.70;99.90;;;;;;5002803;28;20069;-83
2022/05/21 04:47:17;;;;;;;10.95;2.67;;;12.80;99.90;;;;;;5002285;28;20046;-83
2022/05/21 04:49:43;;;;;;;1.95;1.45;;;12.80;99.90;;;;;;5001697;28;20361;-82
2022/05/21 04:52:08;;;;;;;4.47;2.33;;;12.80;99.90;;;;;;5002424;28;20133;-83
2022/05/21 04:54:35;;;;;;;11.85;2.53;;;12.80;99.90;;;;;;5002159;28;20034;-83
2022/05/21 04:57:01;;;;;;;1.42;1.33;;;12.80;99.90;;;;;;5000878;28;20057;-85
2022/05/21 04:59:27;;;;;;;3.63;1.52;;;12.80;99.90;;;;;;5002918;28;20030;-83
2022/05/21 05:01:52;;;;;;;12.18;1.98;;;12.80;99.90;;;;;;5001820;28;20068;-82
2022/05/21 05:04:18;;;;;;;11.35;2.75;;;12.80;99.90;;;;;;5002616;28;20125;-82
2022/05/21 05:06:43;;;;;;;10.13;2.88;;;12.80;99.90;;;;;;5001766;28;20049;-83
2022/05/21 05:09:10;;;;;;;3.83;1.63;;;12.80;99.90;;;;;;5004817;28;20489;-84
2022/05/21 05:11:35;;;;;;;10.65;1.85;;;12.80;99.90;;;;;;5005375;28;20081;-83
2022/05/21 05:14:01;;;;;;;4.22;2.25;;;12.80;99.90;;;;;;5005810;28;20077;-84
2022/05/21 05:16:27;;;;;;;13.63;2.38;;;12.90;99.90;;;;;;5005877;28;20096;-82
2022/05/21 05:18:53;;;;;;;1.50;1.40;;;12.90;99.90;;;;;;5005567;28;20524;-83
2022/05/21 05:21:18;;;;;;;10.90;2.42;;;12.90;99.90;;;;;;5005647;28;20049;-83
2022/05/21 05:23:44;;;;;;;4.35;1.55;;;12.90;99.90;;;;;;5005205;28;20459;-83
2022/05/21 05:26:09;;;;;;;7.50;2.67;;;12.90;99.90;;;;;;5004448;28;20053;-83
2022/05/21 05:28:38;;;;;;;9.13;2.63;;;12.90;99.90;;;;;;5004507;28;20133;-83
2022/05/21 05:31:04;;;;;;;16.60;2.60;;;12.90;99.90;;;;;;5005026;28;20037;-82
2022/05/21 05:33:30;;;;;;;13.57;2.40;;;13.00;99.90;;;;;;5005918;28;20057;-82
2022/05/21 05:35:55;;;;;;;4.78;1.63;;;12.90;99.90;;;;;;5005719;28;20049;-83
2022/05/21 05:38:22;;;;;;;3.78;1.77;;;13.00;99.90;;;;;;5005068;28;20056;-83
2022/05/21 05:40:50;;;;;;;7.68;2.05;;;12.90;99.90;;;;;;5004238;28;20049;-82
2022/05/21 05:43:17;;;;;;;2.80;1.65;;;13.00;99.90;;;;;;5004678;28;20034;-83
2022/05/21 05:45:44;;;;;;;6.07;2.35;;;13.00;99.90;;;;;;5005137;28;20050;-82
2022/05/21 05:48:09;;;;;;;15.93;2.83;;;13.00;99.90;;;;;;5005599;28;20042;-82
2022/05/21 05:50:35;;;;;;;7.38;1.88;;;13.00;99.90;;;;;;5004848;28;20042;-83
2022/05/21 05:53:05;;;;;;;6.82;1.65;;;12.90;99.90;;;;;;5005020;28;20428;-83
2022/05/21 05:55:32;;;;;;;3.88;2.15;;;13.00;99.90;;;;;;5004303;28;20038;-79
2022/05/21 05:57:58;;;;;;;10.20;2.45;;;13.00;99.90;;;;;;5005217;28;20084;-82
2022/05/21 06:00:26;;;;;;;2.97;1.27;;;13.00;99.90;;;;;;5004549;28;20983;-82
2022/05/21 06:02:58;;;;;;;4.82;1.88;;;13.00;99.90;;;;;;5004763;28;20073;-83
2022/05/21 06:05:30;;;;;;;3.53;1.77;;;13.00;99.90;;;;;;5004107;28;20195;-83
2022/05/21 06:08:04;;;;;;;3.13;1.95;;;13.10;99.90;;;;;;5004680;28;20556;-83
2022/05/21 06:10:35;;;;;;;3.97;2.47;;;13.10;99.90;;;;;;5004350;28;20046;-81
2022/05/21 06:13:02;;;;;;;18.43;2.27;;;13.10;99.90;;;;;;5003558;28;20108;-83
2022/05/21 06:15:28;;;;;;;4.68;1.52;;;13.10;99.90;;;;;;5004973;28;20350;-82
2022/05/21 06:17:54;;;;;;;4.15;1.92;;;13.20;99.90;;;;;;5004589;28;20084;-82
2022/05/21 06:20:22;;;;;;;3.28;1.45;;;13.20;99.90;;;;;;5002841;28;20046;-82
2022/05/21 06:22:48;;;;;;;8.07;1.80;;;13.20;99.90;;;;;;5004963;28;20041;-83
2022/05/21 06:25:17;;;;;;;4.60;1.92;;;13.10;99.90;;;;;;5001555;28;20040;-83
2022/05/21 06:27:45;;;;;;;4.07;1.60;;;13.10;99.90;;;;;;5004243;28;20053;-83
2022/05/21 06:30:11;;;;;;;2.58;1.40;;;13.20;99.90;;;;;;5004100;28;20088;-83
2022/05/21 06:32:37;;;;;;;15.65;2.33;;;13.20;99.90;;;;;;5004364;28;20054;-82
2022/05/21 06:35:04;;;;;;;3.72;1.35;;;13.20;99.90;;;;;;5002442;28;20138;-81
2022/05/21 06:37:29;;;;;;;3.30;1.50;;;13.20;99.90;;;;;;5004445;28;20038;-82
2022/05/21 06:39:55;;;;;;;9.10;1.77;;;13.30;99.90;;;;;;5003387;28;20053;-82
2022/05/21 06:42:20;;;;;;;4.45;1.80;;;13.30;99.90;;;;;;5004280;28;20045;-82
2022/05/21 06:44:46;;;;;;;4.38;1.75;;;13.30;99.90;;;;;;5003871;28;20048;-82
2022/05/21 06:47:11;;;;;;;6.38;2.25;;;13.40;99.90;;;;;;5004059;28;20068;-81
2022/05/21 06:49:37;;;;;;;10.23;3.47;;;13.40;99.90;;;;;;5004106;28;20092;-82
2022/05/21 06:52:03;;;;;;;10.82;1.83;;;13.40;99.90;;;;;;5018708;28;20428;-83
2022/05/21 06:54:29;;;;;;;6.30;2.13;;;13.40;99.90;;;;;;5018699;28;20526;-81
2022/05/21 06:56:54;;;;;;;2.75;1.38;;;13.40;99.90;;;;;;5002702;28;20042;-77
2022/05/21 06:59:20;;;;;;;3.67;2.25;;;13.50;99.90;;;;;;4999301;28;20606;-77
2022/05/21 07:01:45;;;;;;;4.93;2.22;;;13.50;99.90;;;;;;4999033;28;20057;-83
2022/05/21 07:04:13;;;;;;;5.07;2.08;;;13.50;99.90;;;;;;4984448;28;20092;-85
2022/05/21 07:09:24;;;;;;;9.77;2.45;;;13.50;99.90;;;;;;5003474;28;20050;-83
2022/05/21 07:11:51;;;;;;;7.60;1.58;;;13.50;99.90;;;;;;5002451;28;20050;-83
2022/05/21 07:14:17;;;;;;;6.97;2.00;;;13.50;99.90;;;;;;5003985;28;20424;-83
2022/05/21 07:16:43;;;;;;;4.28;1.52;;;13.60;99.90;;;;;;5003949;28;20038;-82
2022/05/21 07:19:09;;;;;;;9.93;2.28;;;13.60;99.90;;;;;;4999831;28;20519;-75
2022/05/21 07:21:35;;;;;;;4.05;1.73;;;13.60;99.90;;;;;;5003131;28;20144;-77
2022/05/21 07:24:00;;;;;;;2.92;1.67;;;13.60;99.90;;;;;;5004081;28;20133;-76
2022/05/21 07:26:26;;;;;;;4.28;1.75;;;13.50;99.90;;;;;;5003726;28;20072;-77
2022/05/21 07:28:52;;;;;;;4.63;2.05;;;13.60;99.90;;;;;;5003954;28;20590;-75
2022/05/21 07:31:18;;;;;;;7.28;2.45;;;13.60;99.90;;;;;;5001717;28;20041;-75
2022/05/21 07:33:43;;;;;;;2.33;1.20;;;13.60;99.90;;;;;;5000668;28;20351;-75
2022/05/21 07:36:09;;;;;;;3.95;1.55;;;13.60;99.90;;;;;;4984092;28;20163;-81
2022/05/21 07:38:35;;;;;;;7.75;1.50;;;13.60;99.90;;;;;;4983153;28;21184;-80
2022/05/21 07:41:00;;;;;;;4.22;2.83;;;13.60;99.90;;;;;;4983241;28;20543;-80
2022/05/21 07:43:30;;;;;;;13.80;2.67;;;13.60;99.90;;;;;;4985395;28;20061;-81
2022/05/21 07:45:57;;;;;;;6.00;2.17;;;13.60;99.90;;;;;;4996980;28;20046;-81
2022/05/21 07:48:26;;;;;;;5.32;1.45;;;13.70;99.90;;;;;;4990767;28;20093;-80
2022/05/21 07:50:58;;;;;;;3.67;1.88;;;13.70;99.90;;;;;;4992070;28;20050;-80
2022/05/21 07:53:35;;;;;;;8.97;1.70;;;13.70;99.90;;;;;;4993501;28;20041;-82
2022/05/21 07:56:02;;;;;;;5.07;2.50;;;13.70;99.90;;;;;;4996866;28;20124;-81
2022/05/21 07:58:31;;;;;;;3.53;1.77;;;13.70;99.90;;;;;;4991500;28;20054;-82
2022/05/21 08:00:57;;;;;;;5.75;3.05;;;13.80;99.90;;;;;;4988112;28;20046;-81
2022/05/21 08:03:23;;;;;;;4.10;1.88;;;13.80;99.90;;;;;;4983544;28;20660;-81
2022/05/21 08:05:50;;;;;;;1.65;1.30;;;13.90;99.90;;;;;;4984174;28;20090;-83
2022/05/21 08:08:16;;;;;;;2.53;1.52;;;13.90;99.90;;;;;;4982207;28;20050;-81
2022/05/21 08:10:44;;;;;;;3.33;1.65;;;13.90;99.90;;;;;;4998329;28;20053;-81
2022/05/21 08:13:11;;;;;;;10.73;2.22;;;13.90;99.90;;;;;;4982142;28;20050;-81
2022/05/21 08:15:38;;;;;;;3.20;1.10;;;13.90;99.90;;;;;;4984057;28;20042;-81
2022/05/21 08:18:04;;;;;;;10.23;1.65;;;14.00;99.90;;;;;;4983249;28;20125;-81
2022/05/21 08:20:31;;;;;;;13.88;2.13;;;14.00;99.90;;;;;;4983975;28;20054;-81
2022/05/21 08:28:26;;;;;;;5.50;1.77;;;14.00;99.90;;;;;;5001328;28;20042;-78
2022/05/21 08:30:52;;;;;;;3.90;1.92;;;14.10;99.90;;;;;;4995984;28;20421;-78
2022/05/21 08:33:19;;;;;;;12.05;1.98;;;14.10;99.90;;;;;;4991941;28;20137;-79
2022/05/21 08:35:45;;;;;;;1.77;1.45;;;14.10;99.90;;;;;;4997570;28;20121;-76
2022/05/21 08:38:12;;;;;;;14.13;1.65;;;14.10;99.90;;;;;;4998830;28;20133;-78
2022/05/21 08:40:49;;;;;;;4.80;1.90;;;14.20;99.90;;;;;;4988573;28;20042;-79
2022/05/21 08:43:23;;;;;;;2.17;1.73;;;14.30;99.90;;;;;;4995245;28;20045;-78
2022/05/21 08:46:08;;;;;;;6.95;1.52;;;14.30;99.90;;;;;;5005981;28;20485;-78
2022/05/21 08:48:37;;;;;;;5.00;1.98;;;14.30;99.90;;;;;;4988361;28;20046;-79
2022/05/21 08:51:19;;;;;;;10.02;1.80;;;14.30;99.90;;;;;;4988764;28;20038;-80
2022/05/21 08:53:50;;;;;;;3.85;1.95;;;14.40;99.90;;;;;;4999635;28;20046;-81
2022/05/21 08:56:17;;;;;;;4.78;1.30;;;14.30;99.90;;;;;;5002299;28;20275;-80
2022/05/21 08:58:55;;;;;;;3.30;1.77;;;14.40;99.90;;;;;;5004804;28;20099;-80
2022/05/21 09:01:24;;;;;;;6.03;1.80;;;14.40;99.90;;;;;;5004741;28;20111;-79
2022/05/21 09:03:52;;;;;;;10.20;2.22;;;14.40;99.90;;;;;;5001174;28;20042;-78
2022/05/21 09:06:18;;;;;;;2.45;1.50;;;14.40;99.90;;;;;;5003041;28;20500;-78
2022/05/21 09:09:03;;;;;;;5.22;2.65;;;14.40;99.90;;;;;;5006792;28;20534;-80
2022/05/21 09:11:49;;;;;;;8.35;1.92;;;14.40;99.90;;;;;;5006882;28;20072;-80
2022/05/21 09:14:35;;;;;;;5.20;2.38;;;14.40;99.90;;;;;;4997198;28;20162;-80
2022/05/21 09:17:02;;;;;;;5.65;1.52;;;14.40;99.90;;;;;;4985325;28;20042;-84
2022/05/21 09:19:37;;;;;;;7.28;3.03;;;14.50;99.90;;;;;;4987148;28;20042;-83
2022/05/21 09:22:06;;;;;;;4.53;2.05;;;14.40;99.90;;;;;;4992906;28;20073;-88
2022/05/21 09:24:39;;;;;;;1.98;1.80;;;14.40;99.90;;;;;;4996022;28;20052;-85
2022/05/21 09:27:42;;;;;;;6.82;1.65;;;14.40;99.90;;;;;;4997454;28;20053;-88
2022/05/21 09:30:20;;;;;;;3.50;1.33;;;14.50;99.90;;;;;;4986328;28;20078;-86
2022/05/21 09:32:49;;;;;;;3.40;1.65;;;14.50;99.90;;;;;;4986388;28;20105;-86
2022/05/21 09:35:31;;;;;;;5.35;2.33;;;14.50;99.90;;;;;;4969038;28;20125;-86
2022/05/21 09:38:10;;;;;;;;;;;14.50;99.90;;;;;;4987379;28;20065;-87
2022/05/21 09:40:38;;;;;;;4.20;1.40;;;14.60;99.90;;;;;;4988760;28;20439;-92
2022/05/21 09:46:26;;;;;;;4.13;1.80;;;14.60;99.90;;;;;;4988970;28;20057;-85
2022/05/21 09:48:53;;;;;;;2.55;1.08;;;14.60;99.90;;;;;;4999126;28;20053;-86
2022/05/21 09:51:29;;;;;;;1.42;0.98;;;14.60;99.90;;;;;;4993493;28;20042;-88
2022/05/21 09:53:57;;;;;;;4.68;1.60;;;14.60;99.90;;;;;;4991133;28;20069;-85
2022/05/21 09:56:33;;;;;;;8.27;1.30;;;14.50;99.90;;;;;;4991711;28;20046;-86
2022/05/21 09:59:14;;;;;;;1.83;1.65;;;14.50;99.90;;;;;;4993994;28;20525;-88
2022/05/21 10:01:48;;;;;;;5.53;2.13;;;14.60;99.90;;;;;;5000391;28;20050;-86
2022/05/21 10:04:24;;;;;;;5.78;1.75;;;14.60;99.90;;;;;;5003348;28;20068;-87
2022/05/21 10:06:56;;;;;;;4.03;2.05;;;14.70;99.90;;;;;;5003443;28;20153;-86
2022/05/21 10:12:22;;;;;;;3.05;2.05;;;14.70;99.90;;;;;;5002717;28;20132;-84
2022/05/21 10:15:07;;;;;;;6.57;2.05;;;14.70;99.90;;;;;;5004445;28;20129;-85
2022/05/21 10:17:42;;;;;;;6.85;1.38;;;14.70;99.90;;;;;;5004178;28;20050;-85
2022/05/21 10:20:21;;;;;;;3.25;1.42;;;14.70;99.90;;;;;;5004497;28;20042;-82
2022/05/21 10:23:21;;;;;;;9.05;2.08;;;14.70;99.90;;;;;;4985413;28;20129;-87
2022/05/21 10:25:59;;;;;;;2.85;1.65;;;14.70;99.90;;;;;;4984919;28;20100;-81
2022/05/21 10:28:42;;;;;;;2.05;1.23;;;14.80;99.90;;;;;;4985369;28;20413;-85
2022/05/21 10:31:36;;;;;;;2.38;2.17;;;14.80;99.90;;;;;;4986607;28;20046;-82
2022/05/21 10:34:39;;;;;;;12.45;1.65;;;14.80;99.90;;;;;;5003230;28;20049;-82
2022/05/21 10:37:20;;;;;;;2.95;1.83;;;14.80;99.90;;;;;;5003739;28;20081;-82
2022/05/21 10:40:26;;;;;;;6.22;1.95;;;14.80;99.90;;;;;;5003870;28;20053;-83
2022/05/21 10:43:13;;;;;;;5.07;1.70;;;14.80;99.90;;;;;;4993536;28;20050;-80
2022/05/21 10:46:13;;;;;;;4.32;1.25;;;14.90;99.90;;;;;;5002820;28;20050;-92
2022/05/21 10:49:11;;;;;;;7.55;2.38;;;15.00;99.90;;;;;;5017905;28;20060;-83
2022/05/21 10:51:59;;;;;;;11.38;2.45;;;15.00;99.90;;;;;;4991589;28;20062;-79
2022/05/21 10:54:49;;;;;;;3.78;1.65;;;15.00;99.90;;;;;;4984021;28;20057;-81
2022/05/21 10:57:38;;;;;;;4.22;1.33;;;15.10;99.90;;;;;;4986240;28;20054;-80
2022/05/21 11:00:31;;;;;;;4.90;2.05;;;15.20;99.90;;;;;;5003093;28;20124;-82
2022/05/21 11:03:21;;;;;;;1.50;1.40;;;15.20;99.90;;;;;;4992680;28;20031;-84
2022/05/21 11:05:50;;;;;;;2.88;1.63;;;15.30;99.90;;;;;;4996437;28;20149;-86
2022/05/21 11:08:19;;;;;;;2.83;1.38;;;15.20;99.90;;;;;;4985896;28;20046;-83
2022/05/21 11:10:53;;;;;;;2.80;1.17;;;15.20;99.90;;;;;;4996173;28;20042;-81
2022/05/21 11:13:40;;;;;;;4.63;1.27;;;15.20;99.90;;;;;;5003977;28;20128;-83
2022/05/21 11:16:12;;;;;;;8.80;1.45;;;15.20;99.90;;;;;;5002584;28;20117;-84
2022/05/21 11:18:40;;;;;;;;;;;15.20;99.90;;;;;;5001668;28;20068;-84
2022/05/21 11:21:23;;;;;;;2.13;1.38;;;15.20;99.90;;;;;;4992782;28;20569;-84
2022/05/21 11:24:03;;;;;;;3.85;1.50;;;15.30;99.90;;;;;;4989693;28;20481;-85
2022/05/21 11:27:02;;;;;;;6.93;2.30;;;15.30;99.90;;;;;;5080671;27;20467;-80
2022/05/21 11:29:49;;;;;;;8.63;2.00;;;15.40;99.90;;;;;;5079584;28;20055;-80
2022/05/21 11:38:35;;;;;;;3.53;1.40;;;15.40;99.90;;;;;;5080412;28;20098;-80
2022/05/21 11:41:24;;;;;;;6.70;1.35;;;15.40;99.90;;;;;;5056679;28;20051;-80
2022/05/21 11:47:14;;;;;;;1.98;1.15;;;15.40;99.90;;;;;;5079183;28;20161;-80
2022/05/21 11:49:49;;;;;;;2.35;1.10;;;15.40;99.90;;;;;;5079908;28;20063;-78
2022/05/21 11:52:27;;;;;;;1.63;1.00;;;15.50;99.90;;;;;;5079817;28;20380;-80
2022/05/21 11:55:10;;;;;;;0.80;0.80;;;15.50;99.90;;;;;;5078910;28;20101;-81
2022/05/21 11:57:56;;;;;;;1.83;1.10;;;15.50;99.90;;;;;;5078736;28;20055;-80
2022/05/21 12:00:21;;;;;;;3.63;1.35;;;15.50;99.90;;;;;;5080186;28;20040;-80
2022/05/21 12:02:59;;;;;;;3.00;1.55;;;15.60;99.90;;;;;;5075025;28;20475;-81
2022/05/21 12:05:34;;;;;;;4.88;1.30;;;15.60;99.90;;;;;;5079518;28;20051;-79
2022/05/21 12:08:21;;;;;;;2.50;1.15;;;15.60;99.90;;;;;;5080478;28;20036;-82
2022/05/21 12:11:04;;;;;;;6.60;2.03;;;15.60;99.90;;;;;;5067760;28;20045;-86
2022/05/21 12:13:33;;;;;;;2.72;1.65;;;15.60;99.90;;;;;;5065608;28;20052;-81
2022/05/21 12:16:21;;;;;;;5.30;1.27;;;15.60;99.90;;;;;;5080323;28;20067;-83
2022/05/21 12:18:55;;;;;;;6.80;1.60;;;15.50;99.90;;;;;;5075532;28;20048;-86
2022/05/21 12:21:40;;;;;;;2.72;1.08;;;15.60;99.90;;;;;;5068010;28;20051;-81
2022/05/21 12:24:24;;;;;;;2.85;1.13;;;15.60;99.90;;;;;;5075857;28;20553;-83
2022/05/21 12:27:02;;;;;;;2.83;1.05;;;15.60;99.90;;;;;;5061907;28;20123;-84
2022/05/21 12:29:31;;;;;;;7.80;1.63;;;15.60;99.90;;;;;;5078301;28;20044;-85
2022/05/21 12:31:59;;;;;;;2.15;1.08;;;15.60;99.90;;;;;;5077574;28;20037;-84
2022/05/21 12:34:38;;;;;;;5.60;1.63;;;15.60;99.90;;;;;;5077756;28;20240;-87
2022/05/21 12:37:18;;;;;;;3.05;1.38;;;15.60;99.90;;;;;;5067579;28;20044;-87
2022/05/21 12:40:04;;;;;;;3.47;1.65;;;15.50;99.90;;;;;;5062120;28;20072;-95
2022/05/21 12:42:48;;;;;;;2.33;1.08;;;15.50;99.90;;;;;;5065415;28;20072;-92
2022/05/21 12:45:36;;;;;;;3.13;1.48;;;15.50;99.90;;;;;;5063175;28;20251;-93
2022/05/21 12:48:08;;;;;;;1.80;1.35;;;15.60;99.90;;;;;;5064173;28;20107;-95
2022/05/21 12:50:35;;;;;;;1.85;0.70;;;15.70;99.90;;;;;;5063246;28;20087;-78
2022/05/21 12:53:01;;;;;;;7.47;1.65;;;15.70;99.90;;;;;;5061847;28;20040;-78
2022/05/21 12:55:34;;;;;;;1.77;1.08;;;15.70;99.90;;;;;;5061732;28;20430;-80
2022/05/21 12:58:08;;;;;;;4.43;1.48;;;15.60;99.90;;;;;;5059988;28;20131;-81
2022/05/21 13:00:36;;;;;;;9.45;1.55;;;15.60;99.90;;;;;;5063054;28;20044;-81
2022/05/21 13:03:09;;;;;;;3.35;2.15;;;15.70;99.90;;;;;;5062692;28;20079;-80
2022/05/21 13:05:47;;;;;;;6.05;1.40;;;15.70;99.90;;;;;;5063261;28;20090;-81
2022/05/21 13:08:13;;;;;;;2.75;1.02;;;15.60;99.90;;;;;;5061558;28;20041;-80
2022/05/21 13:10:41;;;;;;;7.10;1.83;;;15.60;99.90;;;;;;5064003;28;20556;-81
2022/05/21 13:13:13;;;;;;;2.38;1.88;;;15.60;99.90;;;;;;5064118;28;20136;-80
2022/05/21 13:15:45;;;;;;;4.88;1.85;;;15.60;99.90;;;;;;5063762;28;20270;-80
2022/05/21 13:18:16;;;;;;;;;;;15.60;99.90;;;;;;5064357;28;20348;-81
2022/05/21 13:21:05;;;;;;;6.38;1.35;;;15.60;99.90;;;;;;5062472;28;19927;-81
2022/05/21 13:23:43;;;;;;;5.15;1.52;;;15.60;99.90;;;;;;5062089;28;20040;-82
2022/05/21 13:26:19;;;;;;;1.85;1.42;;;15.60;99.90;;;;;;5063398;28;20504;-81
2022/05/21 13:28:45;;;;;;;2.47;1.73;;;15.70;99.90;;;;;;5060037;28;20045;-81
2022/05/21 13:31:21;;;;;;;11.75;1.67;;;15.70;99.90;;;;;;5058143;28;20055;-81
2022/05/21 13:33:53;;;;;;;12.38;1.50;;;15.70;99.90;;;;;;5062369;28;20150;-80
2022/05/21 13:36:24;;;;;;;3.85;1.77;;;15.70;99.90;;;;;;5063437;28;20368;-81
2022/05/21 13:38:56;;;;;;;4.57;2.20;;;15.70;99.90;;;;;;5063100;28;20052;-81
2022/05/21 13:41:34;;;;;;;2.33;1.90;;;15.60;99.90;;;;;;5063694;28;20406;-80